Time;durP1;ratioP1;P1;durP2;ratioP2;P2;SDS_P1;SDS_P2;PMS_P1;PMS_P2;Temp;Humidity;BMP_temperature;BMP_pressure;BME280_temperature;BME280_humidity;BME280_pressure;Samples;Min_cycle;Max_cycle;Signal;HPM_P1;HPM_P2
2021/12/18 00:00:21;;;;;;;44.20;13.75;;;6.80;99.90;;;;;;5044960;28;20555;-83
2021/12/18 00:02:48;;;;;;;53.83;14.18;;;6.80;99.90;;;;;;5048381;28;20447;-82
2021/12/18 00:05:15;;;;;;;87.32;15.27;;;6.80;99.90;;;;;;5051045;28;20377;-83
2021/12/18 00:07:41;;;;;;;52.78;14.23;;;6.80;99.90;;;;;;5050512;28;20049;-83
2021/12/18 00:10:08;;;;;;;60.65;15.05;;;6.90;99.90;;;;;;5040629;28;20045;-83
2021/12/18 00:12:34;;;;;;;45.15;12.32;;;6.90;99.90;;;;;;5054144;28;20056;-82
2021/12/18 00:15:01;;;;;;;45.60;15.05;;;6.80;99.90;;;;;;5042852;28;20057;-82
2021/12/18 00:17:27;;;;;;;49.25;15.85;;;6.80;99.90;;;;;;5035700;28;20388;-82
2021/12/18 00:19:54;;;;;;;43.63;13.73;;;6.90;99.90;;;;;;5039221;28;20823;-83
2021/12/18 00:22:20;;;;;;;51.95;16.10;;;7.00;99.90;;;;;;5042472;28;20131;-83
2021/12/18 00:24:47;;;;;;;32.40;12.40;;;6.90;99.90;;;;;;5050165;28;20139;-83
2021/12/18 00:27:14;;;;;;;25.90;12.38;;;6.90;99.90;;;;;;5042643;28;20054;-82
2021/12/18 00:29:40;;;;;;;34.67;12.70;;;6.90;99.90;;;;;;5039658;28;20136;-83
2021/12/18 00:32:07;;;;;;;32.30;12.10;;;7.10;99.90;;;;;;5044852;28;20053;-83
2021/12/18 00:34:33;;;;;;;21.75;9.40;;;7.20;99.90;;;;;;5049835;28;20071;-82
2021/12/18 00:37:00;;;;;;;31.00;9.65;;;7.40;99.90;;;;;;5043378;28;20139;-83
2021/12/18 00:39:29;;;;;;;17.65;6.15;;;7.20;99.90;;;;;;5051879;28;20052;-83
2021/12/18 00:42:09;;;;;;;19.08;5.45;;;7.00;99.90;;;;;;5062006;28;20056;-83
2021/12/18 00:44:35;;;;;;;20.98;7.28;;;7.10;99.90;;;;;;5046133;28;20084;-82
2021/12/18 00:47:02;;;;;;;23.63;8.10;;;7.10;99.90;;;;;;5045247;28;20053;-84
2021/12/18 00:49:28;;;;;;;14.90;6.95;;;7.00;99.90;;;;;;5044850;28;20052;-83
2021/12/18 00:51:55;;;;;;;16.02;5.40;;;7.00;99.90;;;;;;5049593;28;20056;-82
2021/12/18 00:54:21;;;;;;;14.32;6.38;;;7.00;99.90;;;;;;5038025;28;20050;-82
2021/12/18 00:56:48;;;;;;;11.10;5.07;;;6.90;99.90;;;;;;5042585;28;20046;-83
2021/12/18 00:59:14;;;;;;;8.57;4.43;;;6.80;99.90;;;;;;5034423;28;20061;-82
2021/12/18 01:01:42;;;;;;;10.93;5.57;;;6.80;99.90;;;;;;5034865;28;20055;-82
2021/12/18 01:04:08;;;;;;;12.55;5.15;;;6.90;99.90;;;;;;5041272;28;20101;-82
2021/12/18 01:06:35;;;;;;;11.50;4.20;;;6.90;99.90;;;;;;5037591;28;20053;-82
2021/12/18 01:09:01;;;;;;;9.25;3.85;;;6.90;99.90;;;;;;5038717;28;20045;-83
2021/12/18 01:11:33;;;;;;;10.68;3.63;;;7.00;99.90;;;;;;5041477;28;20128;-82
2021/12/18 01:14:18;;;;;;;13.30;4.72;;;6.80;99.90;;;;;;5043960;28;20111;-83
2021/12/18 01:16:53;;;;;;;6.90;2.70;;;6.90;99.90;;;;;;5046793;28;20136;-82
2021/12/18 01:25:06;;;;;;;13.52;4.53;;;6.70;99.90;;;;;;5034951;28;20044;-82
2021/12/18 01:27:33;;;;;;;11.60;5.38;;;6.80;99.90;;;;;;5032904;28;20049;-83
2021/12/18 01:29:59;;;;;;;10.35;4.97;;;6.70;99.90;;;;;;5043550;28;20040;-82
2021/12/18 01:32:28;;;;;;;7.95;4.22;;;6.80;99.90;;;;;;5046470;28;20057;-83
2021/12/18 01:34:54;;;;;;;9.52;3.75;;;6.90;99.90;;;;;;5046118;28;20048;-83
2021/12/18 01:37:21;;;;;;;11.82;3.90;;;6.90;99.90;;;;;;5049765;28;20556;-83
2021/12/18 01:39:47;;;;;;;10.68;3.72;;;6.90;99.90;;;;;;5041170;28;20045;-83
2021/12/18 01:42:46;;;;;;;7.43;3.20;;;6.90;99.90;;;;;;5041396;28;20052;-82
2021/12/18 01:45:13;;;;;;;9.02;4.28;;;6.90;99.90;;;;;;5051069;28;20041;-82
2021/12/18 01:53:11;;;;;;;18.52;5.50;;;6.80;99.90;;;;;;5044740;28;20064;-82
2021/12/18 01:55:37;;;;;;;10.50;5.07;;;6.70;99.90;;;;;;5049330;28;20045;-83
2021/12/18 01:58:04;;;;;;;13.13;4.75;;;6.80;99.90;;;;;;5043565;28;20056;-83
2021/12/18 02:00:31;;;;;;;16.35;3.90;;;6.70;99.90;;;;;;5039432;28;20485;-83
2021/12/18 02:02:57;;;;;;;17.23;4.70;;;6.70;99.90;;;;;;5051774;28;20107;-83
2021/12/18 02:05:24;;;;;;;10.13;4.35;;;6.80;99.90;;;;;;5048360;28;20049;-82
2021/12/18 02:07:50;;;;;;;7.20;3.10;;;6.80;99.90;;;;;;5045435;28;20448;-82
2021/12/18 02:10:20;;;;;;;9.00;2.75;;;6.90;99.90;;;;;;5045172;28;20048;-83
2021/12/18 02:12:53;;;;;;;8.50;3.67;;;6.70;99.90;;;;;;5033958;28;20084;-81
2021/12/18 02:20:48;;;;;;;8.35;3.92;;;6.80;99.90;;;;;;5034396;28;20464;-83
2021/12/18 02:23:15;;;;;;;7.30;3.10;;;6.70;99.90;;;;;;5046580;28;20519;-82
2021/12/18 02:25:42;;;;;;;4.43;3.13;;;6.60;99.90;;;;;;5036249;28;20409;-84
2021/12/18 02:28:15;;;;;;;8.77;3.00;;;6.70;99.90;;;;;;5046630;28;20052;-82
2021/12/18 02:30:41;;;;;;;7.45;3.65;;;6.60;99.90;;;;;;5052082;28;20403;-83
2021/12/18 02:33:08;;;;;;;9.60;3.58;;;6.60;99.90;;;;;;5053900;28;20119;-82
2021/12/18 02:35:37;;;;;;;10.82;4.32;;;6.60;99.90;;;;;;5038341;28;20107;-82
2021/12/18 02:38:07;;;;;;;11.70;5.50;;;6.70;99.90;;;;;;5042274;28;20072;-82
2021/12/18 02:41:03;;;;;;;12.88;5.95;;;6.70;99.90;;;;;;5068748;28;20088;-83
2021/12/18 02:43:30;;;;;;;11.00;5.68;;;6.70;99.90;;;;;;5065989;28;20480;-83
2021/12/18 02:45:59;;;;;;;25.75;5.63;;;6.70;99.90;;;;;;5053558;28;20071;-83
2021/12/18 02:48:26;;;;;;;9.27;4.18;;;6.60;99.90;;;;;;5052333;28;20056;-83
2021/12/18 02:50:52;;;;;;;13.70;5.45;;;6.60;99.90;;;;;;5051178;28;20423;-83
2021/12/18 02:53:19;;;;;;;11.57;6.60;;;6.60;99.90;;;;;;5052728;28;20480;-83
2021/12/18 02:55:45;;;;;;;11.68;6.55;;;6.70;99.90;;;;;;5050068;28;20055;-83
2021/12/18 02:58:12;;;;;;;16.58;7.00;;;6.70;99.90;;;;;;5041003;28;20045;-83
2021/12/18 03:00:38;;;;;;;16.65;7.43;;;6.70;99.90;;;;;;5047600;28;20067;-82
2021/12/18 03:03:09;;;;;;;14.05;7.82;;;6.70;99.90;;;;;;5045497;28;20056;-83
2021/12/18 03:05:43;;;;;;;13.23;7.82;;;6.70;99.90;;;;;;5051940;28;20098;-83
2021/12/18 03:08:15;;;;;;;15.35;7.50;;;6.70;99.90;;;;;;5043581;28;20472;-82
2021/12/18 03:24:31;;;;;;;9.23;3.35;;;6.60;99.90;;;;;;5046045;28;20050;-83
2021/12/18 03:26:57;;;;;;;10.13;3.13;;;6.60;99.90;;;;;;5040313;28;20056;-83
2021/12/18 03:29:24;;;;;;;16.55;3.85;;;6.60;99.90;;;;;;5032766;28;20049;-82
2021/12/18 03:31:50;;;;;;;9.07;3.10;;;6.60;99.90;;;;;;5034593;28;20137;-83
2021/12/18 03:34:17;;;;;;;10.70;3.83;;;6.60;99.90;;;;;;5057516;28;20059;-83
2021/12/18 03:36:43;;;;;;;11.18;2.97;;;6.50;99.90;;;;;;5043052;28;20053;-83
2021/12/18 03:39:10;;;;;;;7.13;2.83;;;6.70;99.90;;;;;;5049743;28;20042;-83
2021/12/18 03:41:37;;;;;;;8.85;3.20;;;6.60;99.90;;;;;;5054237;28;20060;-82
2021/12/18 03:44:03;;;;;;;5.85;2.15;;;6.60;99.90;;;;;;5049549;28;20412;-82
2021/12/18 03:46:30;;;;;;;3.90;1.67;;;6.60;99.90;;;;;;5043663;28;20476;-82
2021/12/18 03:48:57;;;;;;;4.72;1.92;;;6.60;99.90;;;;;;5037454;28;20496;-83
2021/12/18 03:51:23;;;;;;;2.88;1.33;;;6.60;99.90;;;;;;5055157;28;20057;-82
2021/12/18 03:53:50;;;;;;;3.95;1.23;;;6.60;99.90;;;;;;5044920;28;20044;-82
2021/12/18 03:56:17;;;;;;;6.35;1.65;;;6.60;99.90;;;;;;5044357;28;20132;-82
2021/12/18 03:58:44;;;;;;;4.68;1.98;;;6.50;99.90;;;;;;5045634;28;20052;-82
2021/12/18 04:01:10;;;;;;;10.05;1.85;;;6.50;99.90;;;;;;5049656;28;20064;-82
2021/12/18 04:03:37;;;;;;;9.68;1.98;;;6.50;99.90;;;;;;5049713;28;20404;-82
2021/12/18 04:06:04;;;;;;;3.88;2.03;;;6.50;99.90;;;;;;5047856;28;20040;-82
2021/12/18 04:08:30;;;;;;;5.32;1.70;;;6.40;99.90;;;;;;5047688;28;20057;-82
2021/12/18 04:10:57;;;;;;;6.03;2.03;;;6.40;99.90;;;;;;5053323;28;20397;-82
2021/12/18 04:13:24;;;;;;;7.25;2.45;;;6.40;99.90;;;;;;5075238;28;20408;-82
2021/12/18 04:15:51;;;;;;;9.32;2.13;;;6.40;99.90;;;;;;5051522;28;20495;-82
2021/12/18 04:18:17;;;;;;;12.10;1.92;;;6.50;99.90;;;;;;5049435;28;20056;-83
2021/12/18 04:20:44;;;;;;;8.65;1.98;;;6.50;99.90;;;;;;5041531;28;20049;-83
2021/12/18 04:23:10;;;;;;;17.25;3.35;;;6.40;99.90;;;;;;5060395;28;20484;-83
2021/12/18 04:25:37;;;;;;;17.95;2.63;;;6.40;99.90;;;;;;5037942;28;20064;-83
2021/12/18 04:28:04;;;;;;;5.47;2.17;;;6.40;99.90;;;;;;5051466;28;20053;-82
2021/12/18 04:30:30;;;;;;;5.50;2.17;;;6.40;99.90;;;;;;5041713;28;20393;-83
2021/12/18 04:32:57;;;;;;;8.57;1.80;;;6.40;99.90;;;;;;5037558;28;20055;-83
2021/12/18 04:35:23;;;;;;;6.25;3.05;;;6.40;99.90;;;;;;5035933;28;20053;-83
2021/12/18 04:37:50;;;;;;;4.30;1.95;;;6.50;99.90;;;;;;5045717;28;20048;-83
2021/12/18 04:40:16;;;;;;;9.68;3.20;;;6.50;99.90;;;;;;5039844;28;20061;-83
2021/12/18 04:42:43;;;;;;;7.13;1.92;;;6.50;99.90;;;;;;5041227;28;20045;-83
2021/12/18 04:45:09;;;;;;;4.53;2.63;;;6.50;99.90;;;;;;5042744;28;20049;-83
2021/12/18 04:47:36;;;;;;;4.50;2.63;;;6.50;99.90;;;;;;5039834;28;20053;-83
2021/12/18 04:50:02;;;;;;;9.55;2.30;;;6.50;99.90;;;;;;5043493;28;20049;-83
2021/12/18 04:52:29;;;;;;;5.85;2.40;;;6.40;99.90;;;;;;5043597;28;20040;-83
2021/12/18 04:54:56;;;;;;;4.13;2.25;;;6.40;99.90;;;;;;5046826;28;20135;-82
2021/12/18 04:57:22;;;;;;;4.35;2.88;;;6.50;99.90;;;;;;5042089;28;20056;-83
2021/12/18 04:59:49;;;;;;;5.28;2.15;;;6.50;99.90;;;;;;5047590;28;20404;-83
2021/12/18 05:02:19;;;;;;;5.45;1.95;;;6.50;99.90;;;;;;5039084;28;20056;-82
2021/12/18 05:04:45;;;;;;;30.65;2.90;;;6.50;99.90;;;;;;5041868;28;20544;-82
2021/12/18 05:07:12;;;;;;;5.85;2.95;;;6.50;99.90;;;;;;5046797;28;20133;-83
2021/12/18 05:09:39;;;;;;;4.05;2.03;;;6.40;99.90;;;;;;5048700;28;20049;-83
2021/12/18 05:12:05;;;;;;;8.07;2.58;;;6.50;99.90;;;;;;5047083;28;20048;-83
2021/12/18 05:14:32;;;;;;;4.40;2.22;;;6.40;99.90;;;;;;5042676;28;20046;-83
2021/12/18 05:16:58;;;;;;;4.50;2.08;;;6.50;99.90;;;;;;5047319;28;20045;-83
2021/12/18 05:19:25;;;;;;;5.32;2.80;;;6.50;99.90;;;;;;5035880;28;20049;-83
2021/12/18 05:21:51;;;;;;;12.45;1.88;;;6.50;99.90;;;;;;5031697;28;20060;-83
2021/12/18 05:24:18;;;;;;;5.32;2.05;;;6.50;99.90;;;;;;5038551;28;20049;-83
2021/12/18 05:26:44;;;;;;;6.78;2.28;;;6.60;99.90;;;;;;5031777;28;20052;-84
2021/12/18 05:29:11;;;;;;;7.68;2.17;;;6.60;99.90;;;;;;5032098;28;20053;-83
2021/12/18 05:31:37;;;;;;;11.48;2.95;;;6.60;99.90;;;;;;5056071;28;20053;-83
2021/12/18 05:34:05;;;;;;;6.28;3.03;;;6.60;99.90;;;;;;5036973;28;20060;-82
2021/12/18 05:36:35;;;;;;;6.85;2.50;;;6.60;99.90;;;;;;5038245;28;20128;-83
2021/12/18 05:39:02;;;;;;;5.65;2.55;;;6.60;99.90;;;;;;5060180;28;20491;-82
2021/12/18 05:41:28;;;;;;;6.90;2.42;;;6.70;99.90;;;;;;5043939;28;20076;-83
2021/12/18 05:43:55;;;;;;;6.80;2.65;;;6.70;99.90;;;;;;5037757;28;20051;-83
2021/12/18 05:46:21;;;;;;;8.32;2.88;;;6.60;99.90;;;;;;5037334;28;20064;-83
2021/12/18 05:48:48;;;;;;;7.15;2.65;;;6.70;99.90;;;;;;5045612;28;20041;-83
2021/12/18 05:51:14;;;;;;;7.00;2.88;;;6.60;99.90;;;;;;5048183;28;20053;-83
2021/12/18 05:53:41;;;;;;;4.50;2.75;;;6.60;99.90;;;;;;5042668;28;20498;-83
2021/12/18 05:56:08;;;;;;;5.78;3.17;;;6.60;99.90;;;;;;5039994;28;20049;-82
2021/12/18 05:58:34;;;;;;;5.53;2.40;;;6.70;99.90;;;;;;5047889;28;20124;-83
2021/12/18 06:01:01;;;;;;;5.55;3.42;;;6.70;99.90;;;;;;5049136;28;20049;-82
2021/12/18 06:03:27;;;;;;;7.80;3.33;;;6.70;99.90;;;;;;5050674;28;20060;-83
2021/12/18 06:05:54;;;;;;;6.82;3.60;;;6.70;99.90;;;;;;5051888;28;20400;-82
2021/12/18 06:08:20;;;;;;;9.02;4.07;;;6.70;99.90;;;;;;5053501;28;20144;-82
2021/12/18 06:10:47;;;;;;;6.15;3.13;;;6.70;99.90;;;;;;5048540;28;20049;-83
2021/12/18 06:13:14;;;;;;;13.45;3.90;;;6.80;99.90;;;;;;5053342;28;20067;-82
2021/12/18 06:15:40;;;;;;;8.73;3.65;;;6.80;99.90;;;;;;5042056;28;20493;-83
2021/12/18 06:18:07;;;;;;;9.85;4.10;;;6.80;99.90;;;;;;5050059;28;20056;-82
2021/12/18 06:20:33;;;;;;;8.95;3.75;;;6.80;99.90;;;;;;5049509;28;20052;-83
2021/12/18 06:23:00;;;;;;;7.28;2.88;;;6.80;99.90;;;;;;5051433;28;20049;-83
2021/12/18 06:25:26;;;;;;;6.07;3.10;;;6.80;99.90;;;;;;5043619;28;20484;-83
2021/12/18 06:27:53;;;;;;;9.02;3.92;;;6.80;99.90;;;;;;5045088;28;20427;-83
2021/12/18 06:30:20;;;;;;;8.00;3.05;;;6.80;99.90;;;;;;5040238;28;20447;-82
2021/12/18 06:32:46;;;;;;;6.35;3.25;;;6.80;99.90;;;;;;5054227;28;20052;-83
2021/12/18 06:35:13;;;;;;;7.65;3.28;;;6.80;99.90;;;;;;5044853;28;20053;-83
2021/12/18 06:37:39;;;;;;;7.88;3.08;;;6.80;99.90;;;;;;5045092;28;20057;-83
2021/12/18 06:40:06;;;;;;;12.25;3.50;;;6.80;99.90;;;;;;5046155;28;20045;-81
2021/12/18 06:42:32;;;;;;;7.10;3.55;;;6.90;99.90;;;;;;5043618;28;20396;-83
2021/12/18 06:44:59;;;;;;;8.73;3.17;;;6.90;99.90;;;;;;5048425;28;20149;-82
2021/12/18 06:47:25;;;;;;;10.60;4.43;;;6.90;99.90;;;;;;5048783;28;20044;-83
2021/12/18 06:49:52;;;;;;;8.93;3.95;;;6.90;99.90;;;;;;5038914;28;20046;-82
2021/12/18 06:52:18;;;;;;;11.82;4.57;;;6.90;99.90;;;;;;5040285;28;20049;-83
2021/12/18 06:54:45;;;;;;;9.20;4.03;;;6.90;99.90;;;;;;5037977;28;20053;-83
2021/12/18 06:57:12;;;;;;;7.38;3.80;;;6.90;99.90;;;;;;5042264;28;20139;-83
2021/12/18 06:59:38;;;;;;;16.42;4.68;;;6.90;99.90;;;;;;5043264;28;20065;-83
2021/12/18 07:02:05;;;;;;;8.20;4.07;;;7.00;99.90;;;;;;5043139;28;20060;-83
2021/12/18 07:04:31;;;;;;;7.35;3.97;;;7.00;99.90;;;;;;5048827;28;20367;-83
2021/12/18 07:06:58;;;;;;;13.52;5.35;;;7.00;99.90;;;;;;5038717;28;20045;-83
2021/12/18 07:09:24;;;;;;;10.27;4.40;;;7.00;99.90;;;;;;5044524;28;20044;-82
2021/12/18 07:11:51;;;;;;;7.85;4.88;;;7.00;99.90;;;;;;5047614;28;20064;-82
2021/12/18 07:14:17;;;;;;;28.98;5.63;;;7.20;99.90;;;;;;5040553;28;20040;-82
2021/12/18 07:16:44;;;;;;;11.95;4.88;;;7.10;99.90;;;;;;5053153;28;20057;-83
2021/12/18 07:19:10;;;;;;;10.43;4.63;;;7.10;99.90;;;;;;5042643;28;20052;-82
2021/12/18 07:21:37;;;;;;;16.15;5.47;;;7.00;99.90;;;;;;5045100;28;20053;-83
2021/12/18 07:24:03;;;;;;;16.05;5.93;;;7.10;99.90;;;;;;5044015;28;20683;-81
2021/12/18 07:26:32;;;;;;;17.25;6.35;;;7.10;99.90;;;;;;5038838;28;20103;-81
2021/12/18 07:28:59;;;;;;;15.43;5.78;;;7.10;99.90;;;;;;5039339;28;20513;-82
2021/12/18 07:31:25;;;;;;;13.75;6.25;;;7.20;99.90;;;;;;5037232;28;20045;-82
2021/12/18 07:33:52;;;;;;;13.70;5.20;;;7.20;99.90;;;;;;5038548;28;20053;-83
2021/12/18 07:36:18;;;;;;;16.80;5.30;;;7.20;99.90;;;;;;5042142;28;20041;-80
2021/12/18 07:38:45;;;;;;;15.73;5.13;;;7.20;99.90;;;;;;5039824;28;20046;-81
2021/12/18 07:41:11;;;;;;;17.90;5.97;;;7.20;99.90;;;;;;5033860;28;20469;-81
2021/12/18 07:43:38;;;;;;;15.75;6.65;;;7.20;99.90;;;;;;5044455;28;20049;-81
2021/12/18 07:46:04;;;;;;;19.58;6.47;;;7.20;99.90;;;;;;5042291;28;20499;-82
2021/12/18 07:48:31;;;;;;;16.85;7.10;;;7.30;99.90;;;;;;5040688;28;20103;-82
2021/12/18 07:50:57;;;;;;;13.98;6.28;;;7.40;99.90;;;;;;5036194;28;20049;-81
2021/12/18 07:53:24;;;;;;;12.25;6.65;;;7.30;99.90;;;;;;5038921;28;20053;-81
2021/12/18 07:55:51;;;;;;;19.75;6.90;;;7.30;99.90;;;;;;5041555;28;20088;-81
2021/12/18 07:58:17;;;;;;;20.98;6.93;;;7.40;99.90;;;;;;5034372;28;20048;-81
2021/12/18 08:00:44;;;;;;;12.15;5.53;;;7.40;99.90;;;;;;5042049;28;20050;-81
2021/12/18 08:03:10;;;;;;;17.88;7.10;;;7.50;99.90;;;;;;5039901;28;20061;-81
2021/12/18 08:05:37;;;;;;;20.27;7.30;;;7.50;99.90;;;;;;5040405;28;20051;-82
2021/12/18 08:08:03;;;;;;;12.23;6.53;;;7.50;99.90;;;;;;5034666;28;20058;-82
2021/12/18 08:10:30;;;;;;;11.65;6.72;;;7.50;99.90;;;;;;5034477;28;20057;-82
2021/12/18 08:12:57;;;;;;;17.05;6.43;;;7.60;99.90;;;;;;5032203;28;20049;-82
2021/12/18 08:15:23;;;;;;;16.85;7.53;;;7.60;99.90;;;;;;5033110;28;20059;-82
2021/12/18 08:17:50;;;;;;;15.05;7.15;;;7.50;99.90;;;;;;5035790;28;20045;-82
2021/12/18 08:20:16;;;;;;;17.90;7.60;;;7.60;99.90;;;;;;5035728;28;20053;-81
2021/12/18 08:22:43;;;;;;;14.43;7.30;;;7.60;99.90;;;;;;5031644;28;20748;-82
2021/12/18 08:25:09;;;;;;;17.05;6.55;;;7.60;99.90;;;;;;5033730;28;20053;-82
2021/12/18 08:27:36;;;;;;;14.00;7.82;;;7.60;99.90;;;;;;5033570;28;20076;-82
2021/12/18 08:30:02;;;;;;;30.77;8.60;;;7.70;99.90;;;;;;5035462;28;20060;-82
2021/12/18 08:32:29;;;;;;;12.60;6.13;;;7.60;99.90;;;;;;5034571;28;20045;-82
2021/12/18 08:34:55;;;;;;;15.18;6.03;;;7.70;99.90;;;;;;5032762;28;20373;-82
2021/12/18 08:37:22;;;;;;;12.32;6.15;;;7.60;99.90;;;;;;5032489;28;20042;-82
2021/12/18 08:39:49;;;;;;;13.73;5.78;;;7.60;99.90;;;;;;5033324;28;20523;-82
2021/12/18 08:42:15;;;;;;;11.73;6.47;;;7.70;99.90;;;;;;5032733;28;20060;-81
2021/12/18 08:44:42;;;;;;;12.02;6.07;;;7.60;99.90;;;;;;5035147;28;20068;-82
2021/12/18 08:47:10;;;;;;;11.70;6.07;;;7.70;99.90;;;;;;5032262;28;20055;-82
2021/12/18 08:49:37;;;;;;;13.13;6.45;;;7.80;99.90;;;;;;5030961;28;20134;-82
2021/12/18 08:52:04;;;;;;;18.98;5.78;;;7.90;99.90;;;;;;5040191;28;20053;-82
2021/12/18 08:54:30;;;;;;;15.77;6.15;;;7.90;99.90;;;;;;5037152;28;20048;-82
2021/12/18 08:56:57;;;;;;;9.70;5.35;;;7.90;99.90;;;;;;5036116;28;20053;-82
2021/12/18 08:59:23;;;;;;;15.77;5.00;;;8.00;99.90;;;;;;5035209;28;20045;-82
2021/12/18 09:01:50;;;;;;;17.30;4.95;;;8.20;99.90;;;;;;5034449;28;20053;-82
2021/12/18 09:04:17;;;;;;;11.85;4.20;;;8.50;99.90;;;;;;5033383;28;20056;-81
2021/12/18 09:06:43;;;;;;;23.50;5.22;;;8.40;99.90;;;;;;5036010;28;20049;-82
2021/12/18 09:09:10;;;;;;;10.75;3.47;;;8.50;99.90;;;;;;5035222;28;20060;-82
2021/12/18 09:11:36;;;;;;;10.90;4.35;;;8.50;99.90;;;;;;5035815;28;20063;-83
2021/12/18 09:14:03;;;;;;;9.27;3.05;;;8.50;99.90;;;;;;5036677;28;20053;-83
2021/12/18 09:16:30;;;;;;;10.40;3.55;;;8.40;99.90;;;;;;5034482;28;20486;-83
2021/12/18 09:18:57;;;;;;;7.18;3.17;;;8.40;99.90;;;;;;5035900;28;20478;-82
2021/12/18 09:21:23;;;;;;;16.63;2.88;;;8.50;99.90;;;;;;5035112;28;20075;-82
2021/12/18 09:23:50;;;;;;;4.63;1.52;;;8.60;99.90;;;;;;5036152;28;20428;-84
2021/12/18 09:26:16;;;;;;;5.93;2.67;;;8.50;99.90;;;;;;5035377;28;20245;-82
2021/12/18 09:28:43;;;;;;;5.75;2.53;;;8.60;99.90;;;;;;5036951;28;20127;-83
2021/12/18 09:31:10;;;;;;;4.00;2.05;;;8.60;99.90;;;;;;5037260;28;20056;-82
2021/12/18 09:33:36;;;;;;;8.13;2.70;;;8.60;99.90;;;;;;5034096;28;20053;-82
2021/12/18 09:36:03;;;;;;;6.47;2.67;;;8.30;99.90;;;;;;5033302;28;20060;-83
2021/12/18 09:38:29;;;;;;;11.50;2.97;;;8.30;99.90;;;;;;5035102;28;20470;-82
2021/12/18 09:40:56;;;;;;;7.28;2.78;;;8.30;99.90;;;;;;5039108;28;20057;-83
2021/12/18 09:43:22;;;;;;;7.10;2.60;;;8.30;99.90;;;;;;5032228;28;20046;-82
2021/12/18 09:45:49;;;;;;;5.25;3.08;;;8.40;99.90;;;;;;5036111;28;20049;-82
2021/12/18 09:48:15;;;;;;;9.95;2.85;;;8.30;99.90;;;;;;5033562;28;20064;-82
2021/12/18 09:50:43;;;;;;;16.85;3.55;;;8.30;99.90;;;;;;5029631;28;20077;-82
2021/12/18 09:53:10;;;;;;;8.02;3.28;;;8.20;99.90;;;;;;5032956;28;20072;-82
2021/12/18 09:55:36;;;;;;;4.43;2.75;;;8.20;99.90;;;;;;5033671;28;20053;-82
2021/12/18 09:58:03;;;;;;;11.27;2.97;;;8.40;99.90;;;;;;5030073;28;20037;-82
2021/12/18 10:00:29;;;;;;;7.95;2.85;;;8.50;99.90;;;;;;5032810;28;20128;-82
2021/12/18 10:02:56;;;;;;;8.43;2.85;;;8.50;99.90;;;;;;5033369;28;20061;-82
2021/12/18 10:05:22;;;;;;;7.32;3.17;;;8.60;99.90;;;;;;5032817;28;20045;-81
2021/12/18 10:07:49;;;;;;;10.05;2.95;;;8.70;99.90;;;;;;5036078;28;20053;-82
2021/12/18 10:10:16;;;;;;;10.10;3.72;;;8.70;99.90;;;;;;5033352;28;20052;-82
2021/12/18 10:12:42;;;;;;;18.48;3.65;;;8.60;99.90;;;;;;5066432;28;20653;-82
2021/12/18 10:15:09;;;;;;;8.63;3.55;;;8.60;99.90;;;;;;5031619;28;20045;-82
2021/12/18 10:17:35;;;;;;;6.05;2.72;;;8.50;99.90;;;;;;5035732;28;20058;-82
2021/12/18 10:20:02;;;;;;;11.98;3.35;;;8.40;99.90;;;;;;5037805;28;20056;-82
2021/12/18 10:22:28;;;;;;;22.60;3.78;;;8.50;99.90;;;;;;5039002;28;20042;-82
2021/12/18 10:24:55;;;;;;;14.23;3.85;;;8.50;99.90;;;;;;5038959;28;20057;-82
2021/12/18 10:27:21;;;;;;;9.70;3.47;;;8.40;99.90;;;;;;5038288;28;20045;-82
2021/12/18 10:29:48;;;;;;;15.73;3.38;;;8.50;99.90;;;;;;5036737;28;20060;-82
2021/12/18 10:32:15;;;;;;;7.82;4.10;;;8.50;99.90;;;;;;5033308;28;20500;-82
2021/12/18 10:34:41;;;;;;;15.57;3.97;;;8.50;99.90;;;;;;5040094;28;20132;-82
2021/12/18 10:37:08;;;;;;;9.60;2.83;;;8.40;99.90;;;;;;5039762;28;20080;-81
2021/12/18 10:39:34;;;;;;;5.93;2.70;;;8.40;99.90;;;;;;5045749;28;20083;-82
2021/12/18 10:42:01;;;;;;;11.57;3.58;;;8.80;99.90;;;;;;5048766;28;20900;-82
2021/12/18 10:44:27;;;;;;;8.63;3.58;;;9.10;99.90;;;;;;5031838;28;20061;-82
2021/12/18 10:46:54;;;;;;;4.97;2.17;;;9.00;99.90;;;;;;5041826;28;20056;-81
2021/12/18 10:49:21;;;;;;;11.77;3.03;;;9.20;99.90;;;;;;5049372;28;20048;-82
2021/12/18 10:51:50;;;;;;;10.68;3.13;;;9.30;99.90;;;;;;5041774;28;20049;-82
2021/12/18 10:54:16;;;;;;;8.65;3.15;;;9.30;99.90;;;;;;5033943;28;20049;-82
2021/12/18 10:56:43;;;;;;;10.52;2.97;;;9.20;99.90;;;;;;5043009;28;20230;-81
2021/12/18 10:59:09;;;;;;;7.32;2.42;;;9.30;99.90;;;;;;5037095;28;20060;-81
2021/12/18 11:01:36;;;;;;;14.10;3.00;;;9.40;99.90;;;;;;5039386;28;20080;-81
2021/12/18 11:04:03;;;;;;;7.72;2.88;;;9.50;99.90;;;;;;5043657;28;20527;-81
2021/12/18 11:06:31;;;;;;;10.35;3.45;;;9.40;99.90;;;;;;5040465;28;20049;-81
2021/12/18 11:08:59;;;;;;;18.15;3.22;;;9.40;99.90;;;;;;5046174;28;20059;-80
2021/12/18 11:14:16;;;;;;;7.45;2.83;;;9.40;99.90;;;;;;4971076;28;20046;-81
2021/12/18 11:16:43;;;;;;;13.43;3.60;;;9.40;99.90;;;;;;5040340;28;20056;-81
2021/12/18 11:19:11;;;;;;;8.05;3.38;;;9.30;99.90;;;;;;5042012;28;20054;-81
2021/12/18 11:21:38;;;;;;;12.15;3.13;;;9.30;99.90;;;;;;5042424;28;20053;-81
2021/12/18 11:24:05;;;;;;;6.88;3.47;;;9.10;99.90;;;;;;5053021;28;20061;-81
2021/12/18 11:26:32;;;;;;;15.27;3.60;;;9.10;99.90;;;;;;5039811;28;20053;-81
2021/12/18 11:28:58;;;;;;;9.10;3.45;;;9.10;99.90;;;;;;5036071;28;20057;-81
2021/12/18 11:31:25;;;;;;;16.95;4.00;;;9.10;99.90;;;;;;5037914;28;20069;-81
2021/12/18 11:33:51;;;;;;;8.77;3.53;;;9.10;99.90;;;;;;5035884;28;20045;-81
2021/12/18 11:36:18;;;;;;;11.63;3.97;;;8.90;99.90;;;;;;5042124;28;20478;-81
2021/12/18 11:38:45;;;;;;;13.27;4.93;;;8.90;99.90;;;;;;5045359;28;20135;-81
2021/12/18 11:41:11;;;;;;;9.85;3.83;;;8.90;99.90;;;;;;5038825;28;20041;-83
2021/12/18 11:43:38;;;;;;;8.73;4.32;;;8.90;99.90;;;;;;5040881;28;20052;-83
2021/12/18 11:46:04;;;;;;;10.45;3.92;;;8.80;99.90;;;;;;5038361;28;20061;-80
2021/12/18 11:48:31;;;;;;;10.75;3.03;;;8.80;99.90;;;;;;5034698;28;20053;-80
2021/12/18 11:50:57;;;;;;;17.33;4.47;;;8.70;99.90;;;;;;5037287;28;20038;-80
2021/12/18 11:53:24;;;;;;;13.18;3.47;;;8.80;99.90;;;;;;5037758;28;20060;-80
2021/12/18 11:55:50;;;;;;;11.55;3.50;;;8.80;99.90;;;;;;5036010;28;20048;-80
2021/12/18 11:58:17;;;;;;;7.15;3.60;;;8.80;99.90;;;;;;5037552;28;20045;-81
2021/12/18 12:00:47;;;;;;;14.13;4.13;;;8.80;99.90;;;;;;5034736;28;20058;-80
2021/12/18 12:03:13;;;;;;;9.85;4.15;;;8.80;99.90;;;;;;5036111;28;20053;-80
2021/12/18 12:05:40;;;;;;;14.30;3.70;;;8.80;99.90;;;;;;5037148;28;20432;-81
2021/12/18 12:08:06;;;;;;;9.70;4.03;;;8.90;99.90;;;;;;5037097;28;20550;-81
2021/12/18 12:10:47;;;;;;;9.82;3.25;;;9.10;99.90;;;;;;5038058;28;20473;-80
2021/12/18 12:13:14;;;;;;;7.57;2.90;;;9.40;99.90;;;;;;5038726;28;20049;-79
2021/12/18 12:15:40;;;;;;;6.05;2.92;;;9.50;99.90;;;;;;5034284;28;20065;-81
2021/12/18 12:18:08;;;;;;;10.45;3.53;;;9.50;99.90;;;;;;5037890;28;20060;-80
2021/12/18 12:20:34;;;;;;;11.00;2.80;;;9.40;99.90;;;;;;5034916;28;20048;-80
2021/12/18 12:23:02;;;;;;;11.68;3.08;;;9.40;99.90;;;;;;5033926;28;20045;-80
2021/12/18 12:25:29;;;;;;;9.02;3.15;;;9.50;99.90;;;;;;5056508;28;20970;-81
2021/12/18 12:27:56;;;;;;;11.35;3.05;;;9.30;99.90;;;;;;5033576;28;20478;-82
2021/12/18 12:30:22;;;;;;;9.55;3.42;;;9.30;99.90;;;;;;5035961;28;20045;-81
2021/12/18 12:32:49;;;;;;;8.77;3.13;;;9.40;99.90;;;;;;5036089;28;20044;-82
2021/12/18 12:35:15;;;;;;;6.70;2.83;;;9.50;99.90;;;;;;5030250;28;20507;-81
2021/12/18 12:37:43;;;;;;;12.70;4.40;;;9.40;99.90;;;;;;5032415;28;20060;-81
2021/12/18 12:40:09;;;;;;;7.32;3.38;;;9.40;99.90;;;;;;5051769;28;20792;-81
2021/12/18 12:42:36;;;;;;;11.88;3.65;;;9.40;99.90;;;;;;5034241;28;20061;-82
2021/12/18 12:45:06;;;;;;;9.25;3.70;;;9.20;99.90;;;;;;5043494;28;20056;-81
2021/12/18 12:47:33;;;;;;;15.43;4.05;;;9.10;99.90;;;;;;5036291;28;20136;-82
2021/12/18 12:49:59;;;;;;;10.70;4.03;;;9.00;99.90;;;;;;5042421;28;20046;-82
2021/12/18 12:52:27;;;;;;;12.45;2.83;;;9.10;99.90;;;;;;5035714;28;20044;-82
2021/12/18 12:54:53;;;;;;;8.00;2.88;;;9.10;99.90;;;;;;5033523;28;20045;-82
2021/12/18 12:57:20;;;;;;;12.27;3.60;;;9.10;99.90;;;;;;5029897;28;20053;-82
2021/12/18 12:59:46;;;;;;;5.25;3.45;;;9.10;99.90;;;;;;5038851;28;20258;-81
2021/12/18 13:02:13;;;;;;;10.38;3.30;;;9.10;99.90;;;;;;5034445;28;20056;-81
2021/12/18 13:04:39;;;;;;;10.70;4.90;;;9.00;99.90;;;;;;5041872;28;20500;-81
2021/12/18 13:07:06;;;;;;;22.35;5.03;;;8.90;99.90;;;;;;5030292;28;20041;-81
2021/12/18 13:09:33;;;;;;;9.80;4.68;;;8.90;99.90;;;;;;5033796;28;20057;-82
2021/12/18 13:11:59;;;;;;;12.63;4.88;;;8.80;99.90;;;;;;5041216;28;20508;-82
2021/12/18 13:14:26;;;;;;;8.00;4.93;;;9.00;99.90;;;;;;5034933;28;20465;-82
2021/12/18 13:16:52;;;;;;;13.73;3.88;;;9.00;99.90;;;;;;5047926;28;20049;-82
2021/12/18 13:19:19;;;;;;;12.48;3.97;;;9.00;99.90;;;;;;5047996;28;20048;-82
2021/12/18 13:21:46;;;;;;;9.23;3.47;;;8.90;99.90;;;;;;5040416;28;20586;-82